Missouri City, Texas
Current Conditions -  °F | °C
As of 11:53 PM on Saturday 22 Nov 2014 (Local Time) from KSGR Reporting Station
Thunderstorm Thunderstorm  
Wind Chill: 19°   Ceiling: 10000
Heat Index: 19°   Visibility: 10mi
Dew Point: 17°   Wind: 8mph
Humidity: 87%   Direction: 150°SSE
Pressure: 29.71"   Gusts: NA
Location:  29.61°N, 95.53°W
Report Text: KSGR 230553Z AUTO 15007KT 10SM VCTS -RA OVC100 19/17 A2971 RMK AO2 LTG DSNT E-SW RAB0456 SLP060 P0003 60020 T01890167 10200 20178 402000167 58030
Loading
Personal Weather Stations






























Interactive Weather Map New forecast layout! Learn more

10-Day Weather Forecast

Advertisements
Track Severe Weather on mobile